F/V Alcor — FMLY — position and weather

sailwx.info

Track history (hours):
 
Tides and Currents Weather Stations Pressure Air Temp Water Temp Dewpoint Dewpoint Depression Visibility Wind Speed Wind Dir Waves Ship Positions

F/V Alcor

Last reported at 2018-Jun-24 06:50 UTC. Time now 2018-Jun-24 11:16 UTC.
Position N 47°25' W 004°19'.

Length 18 m.

MMSI: 228263900.

Date/timePositionNaut miles runAvg speedWind from/ knotsBaromVisibWave heightAir tempDewpointWater temp
2018-Jun-24 06:50N 47°25' W 004°19'  
2018-Jun-21 10:21N 47°29' W 004°19'0 0.4
2018-Jun-21 09:59N 47°29' W 004°19'2 0.5
2018-Jun-21 05:56N 47°29' W 004°23'0 0.8
2018-Jun-21 05:29N 47°29' W 004°23'0 0.5
2018-Jun-21 04:58N 47°29' W 004°24'0 0.7
2018-Jun-21 04:31N 47°29' W 004°24'0 0.4
2018-Jun-21 04:01N 47°29' W 004°24'1 1.6
2018-Jun-21 03:31N 47°30' W 004°24'4 8.0
2018-Jun-21 02:58N 47°34' W 004°24'15 6.6
2018-Jun-21 00:46N 47°49' W 004°23'19 1.5
2018-Jun-20 11:44N 47°30' W 004°18'2 4.8
2018-Jun-20 11:20N 47°29' W 004°21'3 6.5
2018-Jun-20 10:53N 47°30' W 004°25'3 8.8
2018-Jun-20 10:30N 47°30' W 004°30'1 0.3
2018-Jun-20 07:05N 47°31' W 004°31'2 0.7
2018-Jun-20 04:33N 47°32' W 004°33'0 8.2
2018-Jun-20 04:30N 47°31' W 004°34'1 1.1
2018-Jun-20 03:58N 47°32' W 004°33'2 3.1
2018-Jun-20 03:20N 47°34' W 004°32'4 8.6
2018-Jun-20 02:51N 47°38' W 004°29'7 8.4
2018-Jun-20 02:01N 47°44' W 004°27'4 8.1
2018-Jun-20 01:29N 47°48' W 004°24'1 2.2
2018-Jun-20 01:00N 47°49' W 004°23'0 0.0
2018-Jun-20 00:30N 47°49' W 004°23'0 0.0
2018-Jun-19 23:55N 47°49' W 004°23'0 0.0
2018-Jun-19 16:31N 47°49' W 004°23'13 1.9
2018-Jun-19 09:44N 47°36' W 004°29'3 8.3
2018-Jun-19 09:22N 47°33' W 004°30'3 6.1
2018-Jun-19 08:56N 47°31' W 004°32'5 4.8
2018-Jun-19 07:55N 47°36' W 004°29'5 8.3
2018-Jun-19 07:18N 47°41' W 004°27'9 7.9
2018-Jun-19 06:14N 47°49' W 004°23'0 0.1
2018-Jun-19 05:34N 47°49' W 004°23'0 0.0
2018-Jun-19 05:10N 47°49' W 004°23'0 0.0
2018-Jun-19 02:54N 47°49' W 004°23'0 0.0
2018-Jun-19 00:47N 47°49' W 004°23'0 0.0
2018-Jun-19 00:27N 47°49' W 004°23'0 0.0
2018-Jun-18 23:56N 47°49' W 004°23'0 0.0
2018-Jun-18 23:23N 47°49' W 004°23'0 0.0
2018-Jun-18 22:56N 47°49' W 004°23'0 0.0
2018-Jun-18 07:52N 47°49' W 004°23'0 0.0
2018-Jun-18 07:28N 47°49' W 004°23'0 0.0
2018-Jun-18 06:56N 47°49' W 004°23'0 0.0
2018-Jun-18 06:29N 47°49' W 004°23'0 0.0
2018-Jun-18 05:46N 47°49' W 004°23'0 0.0
2018-Jun-18 05:28N 47°49' W 004°23'0 0.0
2018-Jun-18 04:20N 47°49' W 004°23'0 0.0
2018-Jun-18 02:46N 47°49' W 004°23'0 0.0
2018-Jun-18 02:30N 47°49' W 004°23'0 0.0
2018-Jun-18 02:01N 47°49' W 004°23'0 0.0
2018-Jun-18 01:27N 47°49' W 004°23'0 0.0
2018-Jun-17 00:18N 47°49' W 004°23'0 0.0
2018-Jun-16 23:42N 47°49' W 004°23'0 0.0
2018-Jun-16 23:30N 47°49' W 004°23'0 0.0
2018-Jun-16 22:51N 47°49' W 004°23'  
Track history (hours):
 
Tides and Currents Weather Stations Pressure Air Temp Water Temp Dewpoint Dewpoint Depression Visibility Wind Speed Wind Dir Waves Ship Positions

F/V Alcor

Last reported at 2018-Jun-24 06:50 UTC. Time now 2018-Jun-24 11:16 UTC.
Position N 47°25' W 004°19'.

Length 18 m.

MMSI: 228263900.

Date/timePositionNaut miles runAvg speedWind from/ knotsBaromVisibWave heightAir tempDewpointWater temp
2018-Jun-24 06:50N 47°25' W 004°19'  
2018-Jun-21 10:21N 47°29' W 004°19'0 0.4
2018-Jun-21 09:59N 47°29' W 004°19'2 0.5
2018-Jun-21 05:56N 47°29' W 004°23'0 0.8
2018-Jun-21 05:29N 47°29' W 004°23'0 0.5
2018-Jun-21 04:58N 47°29' W 004°24'0 0.7
2018-Jun-21 04:31N 47°29' W 004°24'0 0.4
2018-Jun-21 04:01N 47°29' W 004°24'1 1.6
2018-Jun-21 03:31N 47°30' W 004°24'4 8.0
2018-Jun-21 02:58N 47°34' W 004°24'15 6.6
2018-Jun-21 00:46N 47°49' W 004°23'19 1.5
2018-Jun-20 11:44N 47°30' W 004°18'2 4.8
2018-Jun-20 11:20N 47°29' W 004°21'3 6.5
2018-Jun-20 10:53N 47°30' W 004°25'3 8.8
2018-Jun-20 10:30N 47°30' W 004°30'1 0.3
2018-Jun-20 07:05N 47°31' W 004°31'2 0.7
2018-Jun-20 04:33N 47°32' W 004°33'0 8.2
2018-Jun-20 04:30N 47°31' W 004°34'1 1.1
2018-Jun-20 03:58N 47°32' W 004°33'2 3.1
2018-Jun-20 03:20N 47°34' W 004°32'4 8.6
2018-Jun-20 02:51N 47°38' W 004°29'7 8.4
2018-Jun-20 02:01N 47°44' W 004°27'4 8.1
2018-Jun-20 01:29N 47°48' W 004°24'1 2.2
2018-Jun-20 01:00N 47°49' W 004°23'0 0.0
2018-Jun-20 00:30N 47°49' W 004°23'0 0.0
2018-Jun-19 23:55N 47°49' W 004°23'0 0.0
2018-Jun-19 16:31N 47°49' W 004°23'13 1.9
2018-Jun-19 09:44N 47°36' W 004°29'3 8.3
2018-Jun-19 09:22N 47°33' W 004°30'3 6.1
2018-Jun-19 08:56N 47°31' W 004°32'5 4.8
2018-Jun-19 07:55N 47°36' W 004°29'5 8.3
2018-Jun-19 07:18N 47°41' W 004°27'9 7.9
2018-Jun-19 06:14N 47°49' W 004°23'0 0.1
2018-Jun-19 05:34N 47°49' W 004°23'0 0.0
2018-Jun-19 05:10N 47°49' W 004°23'0 0.0
2018-Jun-19 02:54N 47°49' W 004°23'0 0.0
2018-Jun-19 00:47N 47°49' W 004°23'0 0.0
2018-Jun-19 00:27N 47°49' W 004°23'0 0.0
2018-Jun-18 23:56N 47°49' W 004°23'0 0.0
2018-Jun-18 23:23N 47°49' W 004°23'0 0.0
2018-Jun-18 22:56N 47°49' W 004°23'0 0.0
2018-Jun-18 07:52N 47°49' W 004°23'0 0.0
2018-Jun-18 07:28N 47°49' W 004°23'0 0.0
2018-Jun-18 06:56N 47°49' W 004°23'0 0.0
2018-Jun-18 06:29N 47°49' W 004°23'0 0.0
2018-Jun-18 05:46N 47°49' W 004°23'0 0.0
2018-Jun-18 05:28N 47°49' W 004°23'0 0.0
2018-Jun-18 04:20N 47°49' W 004°23'0 0.0
2018-Jun-18 02:46N 47°49' W 004°23'0 0.0
2018-Jun-18 02:30N 47°49' W 004°23'0 0.0
2018-Jun-18 02:01N 47°49' W 004°23'0 0.0
2018-Jun-18 01:27N 47°49' W 004°23'0 0.0
2018-Jun-17 00:18N 47°49' W 004°23'0 0.0
2018-Jun-16 23:42N 47°49' W 004°23'0 0.0
2018-Jun-16 23:30N 47°49' W 004°23'0 0.0
2018-Jun-16 22:51N 47°49' W 004°23'  

Dump ship's entire track history